sensor_id;sensor_type;location;lat;lon;timestamp;P1;durP1;ratioP1;P2;durP2;ratioP2
10005;SDS011;5042;42.626;23.382;2024-02-26T00:02:06;9.57;;;8.43;;
10005;SDS011;5042;42.626;23.382;2024-02-26T00:04:33;11.57;;;8.07;;
10005;SDS011;5042;42.626;23.382;2024-02-26T00:07:01;10.97;;;8.60;;
10005;SDS011;5042;42.626;23.382;2024-02-26T00:09:28;11.43;;;8.43;;
10005;SDS011;5042;42.626;23.382;2024-02-26T00:11:55;10.50;;;8.73;;
10005;SDS011;5042;42.626;23.382;2024-02-26T00:14:23;10.80;;;8.70;;
10005;SDS011;5042;42.626;23.382;2024-02-26T00:16:50;10.40;;;8.73;;
10005;SDS011;5042;42.626;23.382;2024-02-26T00:19:17;11.43;;;8.37;;
10005;SDS011;5042;42.626;23.382;2024-02-26T00:21:43;10.10;;;9.00;;
10005;SDS011;5042;42.626;23.382;2024-02-26T00:24:12;10.20;;;8.60;;
10005;SDS011;5042;42.626;23.382;2024-02-26T00:26:39;11.93;;;8.70;;
10005;SDS011;5042;42.626;23.382;2024-02-26T00:29:06;10.47;;;9.03;;
10005;SDS011;5042;42.626;23.382;2024-02-26T00:31:32;12.47;;;8.83;;
10005;SDS011;5042;42.626;23.382;2024-02-26T00:34:00;11.20;;;9.53;;
10005;SDS011;5042;42.626;23.382;2024-02-26T00:36:27;10.83;;;8.90;;
10005;SDS011;5042;42.626;23.382;2024-02-26T00:38:53;11.80;;;9.30;;
10005;SDS011;5042;42.626;23.382;2024-02-26T00:41:22;11.23;;;8.70;;
10005;SDS011;5042;42.626;23.382;2024-02-26T00:43:49;10.27;;;9.10;;
10005;SDS011;5042;42.626;23.382;2024-02-26T00:46:16;10.00;;;8.93;;
10005;SDS011;5042;42.626;23.382;2024-02-26T00:48:43;13.73;;;9.47;;
10005;SDS011;5042;42.626;23.382;2024-02-26T00:51:09;12.20;;;9.03;;
10005;SDS011;5042;42.626;23.382;2024-02-26T00:53:36;12.87;;;9.63;;
10005;SDS011;5042;42.626;23.382;2024-02-26T00:56:03;12.90;;;9.70;;
10005;SDS011;5042;42.626;23.382;2024-02-26T00:58:32;10.90;;;9.43;;
10005;SDS011;5042;42.626;23.382;2024-02-26T01:00:59;12.07;;;9.23;;
10005;SDS011;5042;42.626;23.382;2024-02-26T01:03:26;12.47;;;10.10;;
10005;SDS011;5042;42.626;23.382;2024-02-26T01:05:53;12.40;;;10.20;;
10005;SDS011;5042;42.626;23.382;2024-02-26T01:08:19;12.83;;;9.50;;
10005;SDS011;5042;42.626;23.382;2024-02-26T01:10:46;13.23;;;9.80;;
10005;SDS011;5042;42.626;23.382;2024-02-26T01:13:13;13.20;;;10.50;;
10005;SDS011;5042;42.626;23.382;2024-02-26T01:15:42;14.33;;;11.03;;
10005;SDS011;5042;42.626;23.382;2024-02-26T01:18:09;14.93;;;10.83;;
10005;SDS011;5042;42.626;23.382;2024-02-26T01:20:36;13.83;;;10.07;;
10005;SDS011;5042;42.626;23.382;2024-02-26T01:23:03;12.10;;;9.83;;
10005;SDS011;5042;42.626;23.382;2024-02-26T01:25:31;12.20;;;10.17;;
10005;SDS011;5042;42.626;23.382;2024-02-26T01:27:58;11.63;;;9.87;;
10005;SDS011;5042;42.626;23.382;2024-02-26T01:30:24;13.73;;;10.03;;
10005;SDS011;5042;42.626;23.382;2024-02-26T01:32:53;10.53;;;9.40;;
10005;SDS011;5042;42.626;23.382;2024-02-26T01:35:20;11.77;;;10.27;;
10005;SDS011;5042;42.626;23.382;2024-02-26T01:37:46;12.27;;;9.97;;
10005;SDS011;5042;42.626;23.382;2024-02-26T01:40:13;13.33;;;9.90;;
10005;SDS011;5042;42.626;23.382;2024-02-26T01:42:44;14.37;;;10.43;;
10005;SDS011;5042;42.626;23.382;2024-02-26T01:45:12;11.67;;;9.87;;
10005;SDS011;5042;42.626;23.382;2024-02-26T01:47:46;10.93;;;9.63;;
10005;SDS011;5042;42.626;23.382;2024-02-26T01:50:15;12.43;;;9.90;;
10005;SDS011;5042;42.626;23.382;2024-02-26T01:52:43;11.63;;;10.07;;
10005;SDS011;5042;42.626;23.382;2024-02-26T01:55:10;11.47;;;9.77;;
10005;SDS011;5042;42.626;23.382;2024-02-26T01:57:39;13.27;;;10.23;;
10005;SDS011;5042;42.626;23.382;2024-02-26T02:00:07;12.20;;;10.70;;
10005;SDS011;5042;42.626;23.382;2024-02-26T02:02:35;12.60;;;9.57;;
10005;SDS011;5042;42.626;23.382;2024-02-26T02:05:04;12.17;;;10.37;;
10005;SDS011;5042;42.626;23.382;2024-02-26T02:07:33;12.37;;;10.33;;
10005;SDS011;5042;42.626;23.382;2024-02-26T02:10:02;13.00;;;11.10;;
10005;SDS011;5042;42.626;23.382;2024-02-26T02:12:29;14.93;;;11.10;;
10005;SDS011;5042;42.626;23.382;2024-02-26T02:14:58;12.00;;;10.20;;
10005;SDS011;5042;42.626;23.382;2024-02-26T02:17:25;12.07;;;10.73;;
10005;SDS011;5042;42.626;23.382;2024-02-26T02:19:54;12.67;;;10.57;;
10005;SDS011;5042;42.626;23.382;2024-02-26T02:22:22;13.20;;;11.13;;
10005;SDS011;5042;42.626;23.382;2024-02-26T02:24:49;13.93;;;11.03;;
10005;SDS011;5042;42.626;23.382;2024-02-26T02:27:19;17.57;;;11.63;;
10005;SDS011;5042;42.626;23.382;2024-02-26T02:29:46;14.07;;;10.67;;
10005;SDS011;5042;42.626;23.382;2024-02-26T02:32:14;14.67;;;10.93;;
10005;SDS011;5042;42.626;23.382;2024-02-26T02:34:42;13.63;;;11.43;;
10005;SDS011;5042;42.626;23.382;2024-02-26T02:37:09;13.30;;;11.30;;
10005;SDS011;5042;42.626;23.382;2024-02-26T02:39:37;14.03;;;11.47;;
10005;SDS011;5042;42.626;23.382;2024-02-26T02:42:04;12.60;;;10.50;;
10005;SDS011;5042;42.626;23.382;2024-02-26T02:44:31;14.60;;;11.63;;
10005;SDS011;5042;42.626;23.382;2024-02-26T02:46:58;14.83;;;11.17;;
10005;SDS011;5042;42.626;23.382;2024-02-26T02:49:25;13.83;;;10.70;;
10005;SDS011;5042;42.626;23.382;2024-02-26T02:51:52;13.40;;;10.80;;
10005;SDS011;5042;42.626;23.382;2024-02-26T02:54:19;15.30;;;10.93;;
10005;SDS011;5042;42.626;23.382;2024-02-26T02:56:48;15.67;;;11.27;;
10005;SDS011;5042;42.626;23.382;2024-02-26T02:59:15;13.10;;;11.43;;
10005;SDS011;5042;42.626;23.382;2024-02-26T03:01:41;13.77;;;11.33;;
10005;SDS011;5042;42.626;23.382;2024-02-26T03:04:09;15.73;;;11.03;;
10005;SDS011;5042;42.626;23.382;2024-02-26T03:06:35;13.40;;;11.40;;
10005;SDS011;5042;42.626;23.382;2024-02-26T03:09:02;13.00;;;11.03;;
10005;SDS011;5042;42.626;23.382;2024-02-26T03:11:29;15.37;;;10.90;;
10005;SDS011;5042;42.626;23.382;2024-02-26T03:13:58;12.10;;;10.67;;
10005;SDS011;5042;42.626;23.382;2024-02-26T03:16:25;14.67;;;11.10;;
10005;SDS011;5042;42.626;23.382;2024-02-26T03:18:51;13.73;;;10.43;;
10005;SDS011;5042;42.626;23.382;2024-02-26T03:21:18;13.33;;;10.30;;
10005;SDS011;5042;42.626;23.382;2024-02-26T03:23:45;13.10;;;11.37;;
10005;SDS011;5042;42.626;23.382;2024-02-26T03:26:12;14.77;;;11.93;;
10005;SDS011;5042;42.626;23.382;2024-02-26T03:28:40;12.80;;;11.23;;
10005;SDS011;5042;42.626;23.382;2024-02-26T03:31:08;14.23;;;11.13;;
10005;SDS011;5042;42.626;23.382;2024-02-26T03:33:35;13.40;;;10.93;;
10005;SDS011;5042;42.626;23.382;2024-02-26T03:36:03;12.63;;;11.33;;
10005;SDS011;5042;42.626;23.382;2024-02-26T03:38:30;13.60;;;10.60;;
10005;SDS011;5042;42.626;23.382;2024-02-26T03:40:57;13.17;;;11.10;;
10005;SDS011;5042;42.626;23.382;2024-02-26T03:43:24;13.27;;;10.83;;
10005;SDS011;5042;42.626;23.382;2024-02-26T03:45:51;13.60;;;11.03;;
10005;SDS011;5042;42.626;23.382;2024-02-26T03:48:19;13.87;;;11.10;;
10005;SDS011;5042;42.626;23.382;2024-02-26T03:50:46;13.30;;;11.20;;
10005;SDS011;5042;42.626;23.382;2024-02-26T03:53:13;11.50;;;9.97;;
10005;SDS011;5042;42.626;23.382;2024-02-26T03:55:40;12.33;;;10.47;;
10005;SDS011;5042;42.626;23.382;2024-02-26T03:58:07;13.60;;;11.10;;
10005;SDS011;5042;42.626;23.382;2024-02-26T04:00:34;11.80;;;10.43;;
10005;SDS011;5042;42.626;23.382;2024-02-26T04:03:01;13.33;;;10.83;;
10005;SDS011;5042;42.626;23.382;2024-02-26T04:05:30;12.63;;;10.23;;
10005;SDS011;5042;42.626;23.382;2024-02-26T04:07:57;15.30;;;11.17;;
10005;SDS011;5042;42.626;23.382;2024-02-26T04:10:24;14.20;;;10.63;;
10005;SDS011;5042;42.626;23.382;2024-02-26T04:12:51;12.37;;;10.80;;
10005;SDS011;5042;42.626;23.382;2024-02-26T04:15:18;11.63;;;10.17;;
10005;SDS011;5042;42.626;23.382;2024-02-26T04:17:44;12.77;;;10.83;;
10005;SDS011;5042;42.626;23.382;2024-02-26T04:20:13;13.97;;;9.90;;
10005;SDS011;5042;42.626;23.382;2024-02-26T04:22:42;13.43;;;10.70;;
10005;SDS011;5042;42.626;23.382;2024-02-26T04:25:09;12.43;;;10.60;;
10005;SDS011;5042;42.626;23.382;2024-02-26T04:27:36;11.40;;;9.90;;
10005;SDS011;5042;42.626;23.382;2024-02-26T04:30:04;12.50;;;10.83;;
10005;SDS011;5042;42.626;23.382;2024-02-26T04:32:31;12.73;;;10.27;;
10005;SDS011;5042;42.626;23.382;2024-02-26T04:34:59;12.50;;;10.33;;
10005;SDS011;5042;42.626;23.382;2024-02-26T04:37:26;11.53;;;10.30;;
10005;SDS011;5042;42.626;23.382;2024-02-26T04:39:57;13.37;;;11.63;;
10005;SDS011;5042;42.626;23.382;2024-02-26T04:42:25;14.33;;;11.80;;
10005;SDS011;5042;42.626;23.382;2024-02-26T04:44:52;14.70;;;11.07;;
10005;SDS011;5042;42.626;23.382;2024-02-26T04:47:20;12.37;;;10.57;;
10005;SDS011;5042;42.626;23.382;2024-02-26T04:49:47;15.53;;;11.23;;
10005;SDS011;5042;42.626;23.382;2024-02-26T04:52:15;12.47;;;10.07;;
10005;SDS011;5042;42.626;23.382;2024-02-26T04:54:42;13.60;;;10.83;;
10005;SDS011;5042;42.626;23.382;2024-02-26T04:57:10;13.77;;;10.43;;
10005;SDS011;5042;42.626;23.382;2024-02-26T04:59:37;12.53;;;9.47;;
10005;SDS011;5042;42.626;23.382;2024-02-26T05:02:05;11.43;;;10.07;;
10005;SDS011;5042;42.626;23.382;2024-02-26T05:04:32;15.60;;;12.30;;
10005;SDS011;5042;42.626;23.382;2024-02-26T05:06:59;15.93;;;12.57;;
10005;SDS011;5042;42.626;23.382;2024-02-26T05:09:26;18.53;;;13.83;;
10005;SDS011;5042;42.626;23.382;2024-02-26T05:11:53;17.63;;;14.47;;
10005;SDS011;5042;42.626;23.382;2024-02-26T05:14:21;20.73;;;15.23;;
10005;SDS011;5042;42.626;23.382;2024-02-26T05:16:48;21.73;;;17.10;;
10005;SDS011;5042;42.626;23.382;2024-02-26T05:19:15;19.03;;;15.47;;
10005;SDS011;5042;42.626;23.382;2024-02-26T05:21:42;19.33;;;15.37;;
10005;SDS011;5042;42.626;23.382;2024-02-26T05:24:10;16.43;;;14.00;;
10005;SDS011;5042;42.626;23.382;2024-02-26T05:26:36;17.53;;;13.60;;
10005;SDS011;5042;42.626;23.382;2024-02-26T05:29:03;18.23;;;14.20;;
10005;SDS011;5042;42.626;23.382;2024-02-26T05:31:32;17.73;;;13.93;;
10005;SDS011;5042;42.626;23.382;2024-02-26T05:33:59;15.23;;;12.93;;
10005;SDS011;5042;42.626;23.382;2024-02-26T05:36:25;18.33;;;13.67;;
10005;SDS011;5042;42.626;23.382;2024-02-26T05:38:53;16.00;;;12.30;;
10005;SDS011;5042;42.626;23.382;2024-02-26T05:41:20;18.87;;;13.13;;
10005;SDS011;5042;42.626;23.382;2024-02-26T05:43:51;17.63;;;13.83;;
10005;SDS011;5042;42.626;23.382;2024-02-26T05:46:18;17.37;;;14.27;;
10005;SDS011;5042;42.626;23.382;2024-02-26T05:48:48;17.03;;;13.93;;
10005;SDS011;5042;42.626;23.382;2024-02-26T05:51:15;17.33;;;13.93;;
10005;SDS011;5042;42.626;23.382;2024-02-26T05:53:43;16.97;;;13.43;;
10005;SDS011;5042;42.626;23.382;2024-02-26T05:56:10;18.13;;;13.37;;
10005;SDS011;5042;42.626;23.382;2024-02-26T05:58:36;17.20;;;13.83;;
10005;SDS011;5042;42.626;23.382;2024-02-26T06:01:03;15.13;;;12.80;;
10005;SDS011;5042;42.626;23.382;2024-02-26T06:03:30;17.03;;;14.13;;
10005;SDS011;5042;42.626;23.382;2024-02-26T06:05:59;16.57;;;13.60;;
10005;SDS011;5042;42.626;23.382;2024-02-26T06:08:26;18.07;;;13.70;;
10005;SDS011;5042;42.626;23.382;2024-02-26T06:10:52;16.87;;;12.70;;
10005;SDS011;5042;42.626;23.382;2024-02-26T06:13:19;17.00;;;13.83;;
10005;SDS011;5042;42.626;23.382;2024-02-26T06:15:47;14.67;;;12.93;;
10005;SDS011;5042;42.626;23.382;2024-02-26T06:18:13;15.83;;;11.87;;
10005;SDS011;5042;42.626;23.382;2024-02-26T06:20:41;16.67;;;12.83;;
10005;SDS011;5042;42.626;23.382;2024-02-26T06:23:09;14.17;;;11.87;;
10005;SDS011;5042;42.626;23.382;2024-02-26T06:25:36;17.50;;;12.20;;
10005;SDS011;5042;42.626;23.382;2024-02-26T06:28:03;16.33;;;11.63;;
10005;SDS011;5042;42.626;23.382;2024-02-26T06:30:31;14.37;;;12.53;;
10005;SDS011;5042;42.626;23.382;2024-02-26T06:32:57;16.03;;;11.90;;
10005;SDS011;5042;42.626;23.382;2024-02-26T06:35:24;15.23;;;12.27;;
10005;SDS011;5042;42.626;23.382;2024-02-26T06:37:51;13.00;;;11.63;;
10005;SDS011;5042;42.626;23.382;2024-02-26T06:40:20;14.60;;;11.27;;
10005;SDS011;5042;42.626;23.382;2024-02-26T06:42:47;20.40;;;12.83;;
10005;SDS011;5042;42.626;23.382;2024-02-26T06:45:15;15.27;;;12.07;;
10005;SDS011;5042;42.626;23.382;2024-02-26T06:47:42;18.13;;;12.40;;
10005;SDS011;5042;42.626;23.382;2024-02-26T06:50:11;16.43;;;12.77;;
10005;SDS011;5042;42.626;23.382;2024-02-26T06:52:38;16.43;;;12.90;;
10005;SDS011;5042;42.626;23.382;2024-02-26T06:55:05;17.67;;;12.17;;
10005;SDS011;5042;42.626;23.382;2024-02-26T06:57:35;15.93;;;12.40;;
10005;SDS011;5042;42.626;23.382;2024-02-26T07:00:02;12.50;;;11.13;;
10005;SDS011;5042;42.626;23.382;2024-02-26T07:02:30;16.27;;;12.07;;
10005;SDS011;5042;42.626;23.382;2024-02-26T07:04:57;13.90;;;11.50;;
10005;SDS011;5042;42.626;23.382;2024-02-26T07:07:24;18.07;;;11.33;;
10005;SDS011;5042;42.626;23.382;2024-02-26T07:09:51;13.40;;;10.83;;
10005;SDS011;5042;42.626;23.382;2024-02-26T07:12:17;12.20;;;10.90;;
10005;SDS011;5042;42.626;23.382;2024-02-26T07:14:47;13.00;;;11.00;;
10005;SDS011;5042;42.626;23.382;2024-02-26T07:17:15;15.20;;;10.77;;
10005;SDS011;5042;42.626;23.382;2024-02-26T07:19:42;16.33;;;10.60;;
10005;SDS011;5042;42.626;23.382;2024-02-26T07:22:09;14.33;;;11.23;;
10005;SDS011;5042;42.626;23.382;2024-02-26T07:24:36;12.33;;;10.43;;
10005;SDS011;5042;42.626;23.382;2024-02-26T07:27:03;13.27;;;10.60;;
10005;SDS011;5042;42.626;23.382;2024-02-26T07:29:30;14.67;;;10.57;;
10005;SDS011;5042;42.626;23.382;2024-02-26T07:31:58;14.93;;;11.43;;
10005;SDS011;5042;42.626;23.382;2024-02-26T07:34:25;12.37;;;11.07;;
10005;SDS011;5042;42.626;23.382;2024-02-26T07:36:54;16.10;;;12.77;;
10005;SDS011;5042;42.626;23.382;2024-02-26T07:39:22;13.97;;;10.47;;
10005;SDS011;5042;42.626;23.382;2024-02-26T07:41:48;11.77;;;10.47;;
10005;SDS011;5042;42.626;23.382;2024-02-26T07:44:17;10.77;;;9.40;;
10005;SDS011;5042;42.626;23.382;2024-02-26T07:46:44;12.33;;;9.90;;
10005;SDS011;5042;42.626;23.382;2024-02-26T07:49:13;12.33;;;9.90;;
10005;SDS011;5042;42.626;23.382;2024-02-26T07:51:40;12.47;;;9.53;;
10005;SDS011;5042;42.626;23.382;2024-02-26T07:54:07;14.80;;;9.77;;
10005;SDS011;5042;42.626;23.382;2024-02-26T07:56:34;10.07;;;7.83;;
10005;SDS011;5042;42.626;23.382;2024-02-26T07:59:00;12.33;;;8.93;;
10005;SDS011;5042;42.626;23.382;2024-02-26T08:01:27;13.47;;;8.43;;
10005;SDS011;5042;42.626;23.382;2024-02-26T08:03:54;9.80;;;7.83;;
10005;SDS011;5042;42.626;23.382;2024-02-26T08:06:23;10.83;;;7.50;;
10005;SDS011;5042;42.626;23.382;2024-02-26T08:08:50;9.23;;;7.10;;
10005;SDS011;5042;42.626;23.382;2024-02-26T08:11:17;10.03;;;8.07;;
10005;SDS011;5042;42.626;23.382;2024-02-26T08:13:44;10.60;;;7.93;;
10005;SDS011;5042;42.626;23.382;2024-02-26T08:16:11;9.70;;;8.13;;
10005;SDS011;5042;42.626;23.382;2024-02-26T08:18:38;10.23;;;7.73;;
10005;SDS011;5042;42.626;23.382;2024-02-26T08:21:05;9.70;;;7.70;;
10005;SDS011;5042;42.626;23.382;2024-02-26T08:23:35;10.43;;;7.80;;
10005;SDS011;5042;42.626;23.382;2024-02-26T08:26:02;10.43;;;7.63;;
10005;SDS011;5042;42.626;23.382;2024-02-26T08:28:32;9.53;;;7.53;;
10005;SDS011;5042;42.626;23.382;2024-02-26T08:30:58;11.17;;;8.40;;
10005;SDS011;5042;42.626;23.382;2024-02-26T08:33:25;14.10;;;7.67;;
10005;SDS011;5042;42.626;23.382;2024-02-26T08:35:52;12.43;;;7.83;;
10005;SDS011;5042;42.626;23.382;2024-02-26T08:38:19;8.90;;;6.23;;
10005;SDS011;5042;42.626;23.382;2024-02-26T08:40:47;7.23;;;5.77;;
10005;SDS011;5042;42.626;23.382;2024-02-26T08:43:14;10.50;;;7.10;;
10005;SDS011;5042;42.626;23.382;2024-02-26T08:45:41;12.17;;;6.70;;
10005;SDS011;5042;42.626;23.382;2024-02-26T08:48:08;8.23;;;6.27;;
10005;SDS011;5042;42.626;23.382;2024-02-26T08:50:35;8.47;;;7.03;;
10005;SDS011;5042;42.626;23.382;2024-02-26T08:53:02;9.23;;;6.83;;
10005;SDS011;5042;42.626;23.382;2024-02-26T08:55:29;5.97;;;4.43;;
10005;SDS011;5042;42.626;23.382;2024-02-26T08:57:57;7.37;;;6.60;;
10005;SDS011;5042;42.626;23.382;2024-02-26T09:00:24;9.13;;;6.37;;
10005;SDS011;5042;42.626;23.382;2024-02-26T09:02:51;8.67;;;6.83;;
10005;SDS011;5042;42.626;23.382;2024-02-26T09:05:18;7.40;;;6.00;;
10005;SDS011;5042;42.626;23.382;2024-02-26T09:07:45;12.80;;;6.50;;
10005;SDS011;5042;42.626;23.382;2024-02-26T09:10:12;6.60;;;6.00;;
10005;SDS011;5042;42.626;23.382;2024-02-26T09:12:39;8.60;;;6.87;;
10005;SDS011;5042;42.626;23.382;2024-02-26T09:15:08;9.13;;;6.40;;
10005;SDS011;5042;42.626;23.382;2024-02-26T09:17:36;10.70;;;7.47;;
10005;SDS011;5042;42.626;23.382;2024-02-26T09:20:03;12.70;;;11.07;;
10005;SDS011;5042;42.626;23.382;2024-02-26T09:22:34;8.47;;;7.47;;
10005;SDS011;5042;42.626;23.382;2024-02-26T09:25:03;7.67;;;6.87;;
10005;SDS011;5042;42.626;23.382;2024-02-26T09:27:31;4.30;;;3.90;;
10005;SDS011;5042;42.626;23.382;2024-02-26T09:29:58;5.40;;;4.03;;
10005;SDS011;5042;42.626;23.382;2024-02-26T09:32:26;9.47;;;6.30;;
10005;SDS011;5042;42.626;23.382;2024-02-26T09:34:53;10.97;;;6.70;;
10005;SDS011;5042;42.626;23.382;2024-02-26T09:37:20;7.63;;;6.67;;
10005;SDS011;5042;42.626;23.382;2024-02-26T09:39:47;7.93;;;6.83;;
10005;SDS011;5042;42.626;23.382;2024-02-26T09:42:14;9.60;;;6.83;;
10005;SDS011;5042;42.626;23.382;2024-02-26T09:44:45;7.77;;;6.93;;
10005;SDS011;5042;42.626;23.382;2024-02-26T09:47:14;12.73;;;7.40;;
10005;SDS011;5042;42.626;23.382;2024-02-26T09:49:43;10.20;;;7.73;;
10005;SDS011;5042;42.626;23.382;2024-02-26T09:52:12;9.10;;;7.07;;
10005;SDS011;5042;42.626;23.382;2024-02-26T09:54:42;8.20;;;6.97;;
10005;SDS011;5042;42.626;23.382;2024-02-26T09:57:14;8.97;;;6.90;;
10005;SDS011;5042;42.626;23.382;2024-02-26T09:59:43;8.97;;;6.93;;
10005;SDS011;5042;42.626;23.382;2024-02-26T10:02:11;7.30;;;6.60;;
10005;SDS011;5042;42.626;23.382;2024-02-26T10:04:39;9.73;;;6.87;;
10005;SDS011;5042;42.626;23.382;2024-02-26T10:07:09;8.50;;;7.37;;
10005;SDS011;5042;42.626;23.382;2024-02-26T10:09:37;11.07;;;7.47;;
10005;SDS011;5042;42.626;23.382;2024-02-26T10:12:04;7.77;;;6.90;;
10005;SDS011;5042;42.626;23.382;2024-02-26T10:14:33;8.03;;;7.20;;
10005;SDS011;5042;42.626;23.382;2024-02-26T10:17:01;7.70;;;7.00;;
10005;SDS011;5042;42.626;23.382;2024-02-26T10:19:29;8.80;;;7.90;;
10005;SDS011;5042;42.626;23.382;2024-02-26T10:21:57;8.87;;;6.70;;
10005;SDS011;5042;42.626;23.382;2024-02-26T10:24:25;7.93;;;7.13;;
10005;SDS011;5042;42.626;23.382;2024-02-26T10:26:54;6.70;;;6.10;;
10005;SDS011;5042;42.626;23.382;2024-02-26T10:29:22;10.07;;;7.23;;
10005;SDS011;5042;42.626;23.382;2024-02-26T10:31:50;7.93;;;7.17;;
10005;SDS011;5042;42.626;23.382;2024-02-26T10:34:17;6.28;;;5.68;;
10005;SDS011;5042;42.626;23.382;2024-02-26T10:36:44;5.03;;;4.10;;
10005;SDS011;5042;42.626;23.382;2024-02-26T10:39:12;5.10;;;4.23;;
10005;SDS011;5042;42.626;23.382;2024-02-26T10:41:41;5.60;;;5.07;;
10005;SDS011;5042;42.626;23.382;2024-02-26T10:44:09;7.47;;;5.73;;
10005;SDS011;5042;42.626;23.382;2024-02-26T10:46:37;9.20;;;6.90;;
10005;SDS011;5042;42.626;23.382;2024-02-26T10:49:04;7.27;;;6.53;;
10005;SDS011;5042;42.626;23.382;2024-02-26T10:51:33;7.80;;;7.10;;
10005;SDS011;5042;42.626;23.382;2024-02-26T10:54:02;7.87;;;7.07;;
10005;SDS011;5042;42.626;23.382;2024-02-26T10:56:33;7.60;;;6.90;;
10005;SDS011;5042;42.626;23.382;2024-02-26T10:59:04;7.40;;;6.70;;
10005;SDS011;5042;42.626;23.382;2024-02-26T11:01:35;7.30;;;6.47;;
10005;SDS011;5042;42.626;23.382;2024-02-26T11:04:03;7.27;;;6.10;;
10005;SDS011;5042;42.626;23.382;2024-02-26T11:06:31;9.50;;;6.77;;
10005;SDS011;5042;42.626;23.382;2024-02-26T11:09:00;8.93;;;6.67;;
10005;SDS011;5042;42.626;23.382;2024-02-26T11:11:29;10.23;;;6.43;;
10005;SDS011;5042;42.626;23.382;2024-02-26T11:13:59;7.30;;;5.50;;
10005;SDS011;5042;42.626;23.382;2024-02-26T11:16:31;7.37;;;5.23;;
10005;SDS011;5042;42.626;23.382;2024-02-26T11:19:01;6.93;;;5.87;;
10005;SDS011;5042;42.626;23.382;2024-02-26T11:21:29;7.00;;;6.40;;
10005;SDS011;5042;42.626;23.382;2024-02-26T11:24:04;7.13;;;6.53;;
10005;SDS011;5042;42.626;23.382;2024-02-26T11:26:33;12.87;;;6.73;;
10005;SDS011;5042;42.626;23.382;2024-02-26T11:29:02;8.17;;;6.50;;
10005;SDS011;5042;42.626;23.382;2024-02-26T11:31:33;7.77;;;6.17;;
10005;SDS011;5042;42.626;23.382;2024-02-26T11:34:00;7.47;;;5.40;;
10005;SDS011;5042;42.626;23.382;2024-02-26T11:36:27;11.87;;;5.53;;
10005;SDS011;5042;42.626;23.382;2024-02-26T11:38:55;6.95;;;5.47;;
10005;SDS011;5042;42.626;23.382;2024-02-26T11:41:22;8.23;;;5.70;;
10005;SDS011;5042;42.626;23.382;2024-02-26T11:43:49;7.22;;;5.57;;
10005;SDS011;5042;42.626;23.382;2024-02-26T11:46:27;6.13;;;5.13;;
10005;SDS011;5042;42.626;23.382;2024-02-26T11:49:00;5.87;;;5.23;;
10005;SDS011;5042;42.626;23.382;2024-02-26T11:51:32;9.43;;;5.63;;
10005;SDS011;5042;42.626;23.382;2024-02-26T11:54:00;10.73;;;6.10;;
10005;SDS011;5042;42.626;23.382;2024-02-26T11:56:27;7.27;;;5.47;;
10005;SDS011;5042;42.626;23.382;2024-02-26T11:58:58;7.43;;;5.00;;
10005;SDS011;5042;42.626;23.382;2024-02-26T12:01:39;5.77;;;4.93;;
10005;SDS011;5042;42.626;23.382;2024-02-26T12:04:21;6.53;;;5.70;;
10005;SDS011;5042;42.626;23.382;2024-02-26T12:06:51;5.85;;;5.28;;
10005;SDS011;5042;42.626;23.382;2024-02-26T12:09:35;8.03;;;5.70;;
10005;SDS011;5042;42.626;23.382;2024-02-26T12:12:03;5.77;;;5.27;;
10005;SDS011;5042;42.626;23.382;2024-02-26T12:14:32;7.90;;;5.40;;
10005;SDS011;5042;42.626;23.382;2024-02-26T12:17:01;4.90;;;4.50;;
10005;SDS011;5042;42.626;23.382;2024-02-26T12:19:33;6.43;;;4.80;;
10005;SDS011;5042;42.626;23.382;2024-02-26T12:22:02;7.43;;;5.20;;
10005;SDS011;5042;42.626;23.382;2024-02-26T12:24:30;7.67;;;4.67;;
10005;SDS011;5042;42.626;23.382;2024-02-26T12:26:57;6.73;;;4.97;;
10005;SDS011;5042;42.626;23.382;2024-02-26T12:29:23;5.80;;;4.40;;
10005;SDS011;5042;42.626;23.382;2024-02-26T12:31:50;5.93;;;5.23;;
10005;SDS011;5042;42.626;23.382;2024-02-26T12:34:18;5.47;;;4.60;;
10005;SDS011;5042;42.626;23.382;2024-02-26T12:36:46;6.07;;;4.70;;
10005;SDS011;5042;42.626;23.382;2024-02-26T12:39:13;5.18;;;4.68;;
10005;SDS011;5042;42.626;23.382;2024-02-26T12:41:40;7.50;;;5.45;;
10005;SDS011;5042;42.626;23.382;2024-02-26T12:44:11;5.22;;;4.50;;
10005;SDS011;5042;42.626;23.382;2024-02-26T12:46:38;5.65;;;4.47;;
10005;SDS011;5042;42.626;23.382;2024-02-26T12:49:06;6.53;;;4.90;;
10005;SDS011;5042;42.626;23.382;2024-02-26T12:51:33;4.82;;;4.22;;
10005;SDS011;5042;42.626;23.382;2024-02-26T12:54:01;6.57;;;4.68;;
10005;SDS011;5042;42.626;23.382;2024-02-26T12:56:29;6.05;;;4.85;;
10005;SDS011;5042;42.626;23.382;2024-02-26T12:58:57;7.15;;;4.40;;
10005;SDS011;5042;42.626;23.382;2024-02-26T13:01:25;5.10;;;4.57;;
10005;SDS011;5042;42.626;23.382;2024-02-26T13:03:52;4.85;;;4.05;;
10005;SDS011;5042;42.626;23.382;2024-02-26T13:06:20;4.93;;;4.20;;
10005;SDS011;5042;42.626;23.382;2024-02-26T13:08:48;9.50;;;8.27;;
10005;SDS011;5042;42.626;23.382;2024-02-26T13:11:16;5.75;;;4.72;;
10005;SDS011;5042;42.626;23.382;2024-02-26T13:13:47;4.68;;;4.20;;
10005;SDS011;5042;42.626;23.382;2024-02-26T13:16:15;5.53;;;4.28;;
10005;SDS011;5042;42.626;23.382;2024-02-26T13:18:42;6.13;;;4.43;;
10005;SDS011;5042;42.626;23.382;2024-02-26T13:21:10;5.18;;;4.68;;
10005;SDS011;5042;42.626;23.382;2024-02-26T13:23:38;4.93;;;4.40;;
10005;SDS011;5042;42.626;23.382;2024-02-26T13:26:06;5.72;;;4.22;;
10005;SDS011;5042;42.626;23.382;2024-02-26T13:28:35;5.10;;;4.60;;
10005;SDS011;5042;42.626;23.382;2024-02-26T13:31:03;5.60;;;4.00;;
10005;SDS011;5042;42.626;23.382;2024-02-26T13:33:31;5.63;;;4.07;;
10005;SDS011;5042;42.626;23.382;2024-02-26T13:35:58;9.52;;;5.10;;
10005;SDS011;5042;42.626;23.382;2024-02-26T13:38:26;9.30;;;4.30;;
10005;SDS011;5042;42.626;23.382;2024-02-26T13:40:54;4.78;;;4.07;;
10005;SDS011;5042;42.626;23.382;2024-02-26T13:43:21;4.35;;;4.00;;
10005;SDS011;5042;42.626;23.382;2024-02-26T13:45:49;5.10;;;4.00;;
10005;SDS011;5042;42.626;23.382;2024-02-26T13:48:16;4.20;;;3.75;;
10005;SDS011;5042;42.626;23.382;2024-02-26T13:50:43;5.85;;;3.92;;
10005;SDS011;5042;42.626;23.382;2024-02-26T13:53:11;11.00;;;4.15;;
10005;SDS011;5042;42.626;23.382;2024-02-26T13:55:39;7.63;;;4.72;;
10005;SDS011;5042;42.626;23.382;2024-02-26T13:58:08;6.13;;;4.47;;
10005;SDS011;5042;42.626;23.382;2024-02-26T14:00:38;7.18;;;3.88;;
10005;SDS011;5042;42.626;23.382;2024-02-26T14:03:08;4.72;;;3.75;;
10005;SDS011;5042;42.626;23.382;2024-02-26T14:05:35;4.75;;;3.90;;
10005;SDS011;5042;42.626;23.382;2024-02-26T14:08:02;7.45;;;4.32;;
10005;SDS011;5042;42.626;23.382;2024-02-26T14:10:29;6.15;;;4.07;;
10005;SDS011;5042;42.626;23.382;2024-02-26T14:12:57;5.97;;;4.38;;
10005;SDS011;5042;42.626;23.382;2024-02-26T14:15:25;4.72;;;3.95;;
10005;SDS011;5042;42.626;23.382;2024-02-26T14:17:52;4.53;;;3.63;;
10005;SDS011;5042;42.626;23.382;2024-02-26T14:20:22;7.43;;;4.25;;
10005;SDS011;5042;42.626;23.382;2024-02-26T14:22:50;4.82;;;3.40;;
10005;SDS011;5042;42.626;23.382;2024-02-26T14:25:18;4.85;;;3.35;;
10005;SDS011;5042;42.626;23.382;2024-02-26T14:27:45;4.43;;;3.53;;
10005;SDS011;5042;42.626;23.382;2024-02-26T14:30:12;11.25;;;9.25;;
10005;SDS011;5042;42.626;23.382;2024-02-26T14:32:40;7.78;;;3.90;;
10005;SDS011;5042;42.626;23.382;2024-02-26T14:35:07;5.78;;;3.92;;
10005;SDS011;5042;42.626;23.382;2024-02-26T14:37:35;5.65;;;3.50;;